sensor_id;sensor_type;location;lat;lon;timestamp;P1;durP1;ratioP1;P2;durP2;ratioP2
68888;SDS011;55930;47.412;8.790;2022-12-20T00:01:28;2.10;;;1.83;;
68888;SDS011;55930;47.412;8.790;2022-12-20T00:04:55;2.78;;;1.80;;
68888;SDS011;55930;47.412;8.790;2022-12-20T00:08:16;2.55;;;1.88;;
68888;SDS011;55930;47.412;8.790;2022-12-20T00:11:39;4.80;;;2.08;;
68888;SDS011;55930;47.412;8.790;2022-12-20T00:18:23;2.75;;;1.90;;
68888;SDS011;55930;47.412;8.790;2022-12-20T00:21:44;2.10;;;1.60;;
68888;SDS011;55930;47.412;8.790;2022-12-20T00:25:04;4.43;;;1.60;;
68888;SDS011;55930;47.412;8.790;2022-12-20T00:28:25;2.60;;;1.67;;
68888;SDS011;55930;47.412;8.790;2022-12-20T00:31:45;3.30;;;1.63;;
68888;SDS011;55930;47.412;8.790;2022-12-20T00:35:09;3.15;;;1.65;;
68888;SDS011;55930;47.412;8.790;2022-12-20T00:38:30;3.35;;;1.48;;
68888;SDS011;55930;47.412;8.790;2022-12-20T00:41:51;2.50;;;1.75;;
68888;SDS011;55930;47.412;8.790;2022-12-20T00:45:11;4.90;;;1.77;;
68888;SDS011;55930;47.412;8.790;2022-12-20T00:48:32;2.80;;;1.50;;
68888;SDS011;55930;47.412;8.790;2022-12-20T00:51:53;2.83;;;1.70;;
68888;SDS011;55930;47.412;8.790;2022-12-20T00:55:18;2.30;;;1.40;;
68888;SDS011;55930;47.412;8.790;2022-12-20T00:58:39;3.67;;;1.52;;
68888;SDS011;55930;47.412;8.790;2022-12-20T01:02:02;4.25;;;1.50;;
68888;SDS011;55930;47.412;8.790;2022-12-20T01:05:23;2.07;;;1.40;;
68888;SDS011;55930;47.412;8.790;2022-12-20T01:08:43;3.10;;;1.67;;
68888;SDS011;55930;47.412;8.790;2022-12-20T01:12:04;2.53;;;1.57;;
68888;SDS011;55930;47.412;8.790;2022-12-20T01:15:24;3.30;;;1.60;;
68888;SDS011;55930;47.412;8.790;2022-12-20T01:18:45;4.37;;;2.00;;
68888;SDS011;55930;47.412;8.790;2022-12-20T01:22:06;2.25;;;1.30;;
68888;SDS011;55930;47.412;8.790;2022-12-20T01:25:27;3.27;;;1.60;;
68888;SDS011;55930;47.412;8.790;2022-12-20T01:28:51;2.28;;;1.48;;
68888;SDS011;55930;47.412;8.790;2022-12-20T01:32:15;2.47;;;1.50;;
68888;SDS011;55930;47.412;8.790;2022-12-20T01:35:35;4.13;;;1.50;;
68888;SDS011;55930;47.412;8.790;2022-12-20T01:38:56;3.47;;;1.20;;
68888;SDS011;55930;47.412;8.790;2022-12-20T01:42:24;5.03;;;1.75;;
68888;SDS011;55930;47.412;8.790;2022-12-20T01:45:44;2.73;;;1.30;;
68888;SDS011;55930;47.412;8.790;2022-12-20T01:49:07;2.42;;;1.65;;
68888;SDS011;55930;47.412;8.790;2022-12-20T01:52:38;1.65;;;1.38;;
68888;SDS011;55930;47.412;8.790;2022-12-20T01:56:03;3.28;;;1.50;;
68888;SDS011;55930;47.412;8.790;2022-12-20T01:59:26;2.42;;;1.50;;
68888;SDS011;55930;47.412;8.790;2022-12-20T02:02:48;2.90;;;1.60;;
68888;SDS011;55930;47.412;8.790;2022-12-20T02:09:34;4.45;;;1.50;;
68888;SDS011;55930;47.412;8.790;2022-12-20T02:12:58;1.98;;;1.30;;
68888;SDS011;55930;47.412;8.790;2022-12-20T02:16:32;3.47;;;1.50;;
68888;SDS011;55930;47.412;8.790;2022-12-20T02:27:22;4.03;;;1.70;;
68888;SDS011;55930;47.412;8.790;2022-12-20T02:30:51;3.42;;;1.40;;
68888;SDS011;55930;47.412;8.790;2022-12-20T02:34:13;1.42;;;1.15;;
68888;SDS011;55930;47.412;8.790;2022-12-20T02:37:35;2.20;;;1.20;;
68888;SDS011;55930;47.412;8.790;2022-12-20T02:41:06;2.87;;;1.60;;
68888;SDS011;55930;47.412;8.790;2022-12-20T02:44:31;3.45;;;1.80;;
68888;SDS011;55930;47.412;8.790;2022-12-20T02:48:13;4.53;;;1.70;;
68888;SDS011;55930;47.412;8.790;2022-12-20T02:51:33;1.93;;;1.43;;
68888;SDS011;55930;47.412;8.790;2022-12-20T02:54:54;3.80;;;1.33;;
68888;SDS011;55930;47.412;8.790;2022-12-20T03:01:57;2.53;;;1.50;;
68888;SDS011;55930;47.412;8.790;2022-12-20T03:05:17;2.30;;;1.47;;
68888;SDS011;55930;47.412;8.790;2022-12-20T03:08:43;2.38;;;1.45;;
68888;SDS011;55930;47.412;8.790;2022-12-20T03:12:07;3.08;;;1.67;;
68888;SDS011;55930;47.412;8.790;2022-12-20T03:15:28;3.20;;;1.33;;
68888;SDS011;55930;47.412;8.790;2022-12-20T03:18:49;1.87;;;1.50;;
68888;SDS011;55930;47.412;8.790;2022-12-20T03:22:09;1.43;;;1.30;;
68888;SDS011;55930;47.412;8.790;2022-12-20T03:25:30;2.23;;;1.43;;
68888;SDS011;55930;47.412;8.790;2022-12-20T03:28:51;2.47;;;1.63;;
68888;SDS011;55930;47.412;8.790;2022-12-20T03:32:12;2.67;;;1.60;;
68888;SDS011;55930;47.412;8.790;2022-12-20T03:35:32;2.30;;;1.33;;
68888;SDS011;55930;47.412;8.790;2022-12-20T03:38:53;2.43;;;1.60;;
68888;SDS011;55930;47.412;8.790;2022-12-20T03:42:13;2.22;;;1.60;;
68888;SDS011;55930;47.412;8.790;2022-12-20T03:45:34;2.37;;;1.57;;
68888;SDS011;55930;47.412;8.790;2022-12-20T03:48:54;2.60;;;1.63;;
68888;SDS011;55930;47.412;8.790;2022-12-20T03:52:14;4.63;;;1.43;;
68888;SDS011;55930;47.412;8.790;2022-12-20T03:55:35;2.27;;;1.43;;
68888;SDS011;55930;47.412;8.790;2022-12-20T03:58:55;3.00;;;1.50;;
68888;SDS011;55930;47.412;8.790;2022-12-20T04:02:16;2.60;;;1.70;;
68888;SDS011;55930;47.412;8.790;2022-12-20T04:05:36;2.60;;;1.60;;
68888;SDS011;55930;47.412;8.790;2022-12-20T04:08:57;2.07;;;1.20;;
68888;SDS011;55930;47.412;8.790;2022-12-20T04:12:17;3.00;;;1.60;;
68888;SDS011;55930;47.412;8.790;2022-12-20T04:15:40;3.55;;;1.42;;
68888;SDS011;55930;47.412;8.790;2022-12-20T04:19:00;3.10;;;1.53;;
68888;SDS011;55930;47.412;8.790;2022-12-20T04:22:21;3.27;;;1.90;;
68888;SDS011;55930;47.412;8.790;2022-12-20T04:25:41;2.80;;;1.60;;
68888;SDS011;55930;47.412;8.790;2022-12-20T04:29:02;3.40;;;1.63;;
68888;SDS011;55930;47.412;8.790;2022-12-20T04:32:22;3.33;;;1.67;;
68888;SDS011;55930;47.412;8.790;2022-12-20T04:35:42;2.97;;;2.07;;
68888;SDS011;55930;47.412;8.790;2022-12-20T04:39:03;2.90;;;1.60;;
68888;SDS011;55930;47.412;8.790;2022-12-20T04:42:24;3.60;;;1.80;;
68888;SDS011;55930;47.412;8.790;2022-12-20T04:45:46;3.45;;;2.00;;
68888;SDS011;55930;47.412;8.790;2022-12-20T04:49:07;4.60;;;1.98;;
68888;SDS011;55930;47.412;8.790;2022-12-20T04:52:27;2.97;;;1.77;;
68888;SDS011;55930;47.412;8.790;2022-12-20T04:56:06;3.78;;;1.70;;
68888;SDS011;55930;47.412;8.790;2022-12-20T04:59:27;3.58;;;1.63;;
68888;SDS011;55930;47.412;8.790;2022-12-20T05:02:48;3.83;;;1.97;;
68888;SDS011;55930;47.412;8.790;2022-12-20T05:06:08;3.17;;;1.83;;
68888;SDS011;55930;47.412;8.790;2022-12-20T05:09:29;5.90;;;1.80;;
68888;SDS011;55930;47.412;8.790;2022-12-20T05:12:49;3.77;;;1.67;;
68888;SDS011;55930;47.412;8.790;2022-12-20T05:16:10;2.63;;;1.70;;
68888;SDS011;55930;47.412;8.790;2022-12-20T05:19:30;4.03;;;1.73;;
68888;SDS011;55930;47.412;8.790;2022-12-20T05:22:51;3.23;;;2.23;;
68888;SDS011;55930;47.412;8.790;2022-12-20T05:26:31;4.43;;;2.00;;
68888;SDS011;55930;47.412;8.790;2022-12-20T05:29:55;3.25;;;2.35;;
68888;SDS011;55930;47.412;8.790;2022-12-20T05:33:16;3.20;;;2.10;;
68888;SDS011;55930;47.412;8.790;2022-12-20T05:36:36;4.93;;;2.43;;
68888;SDS011;55930;47.412;8.790;2022-12-20T05:39:56;4.03;;;2.10;;
68888;SDS011;55930;47.412;8.790;2022-12-20T05:43:17;2.90;;;2.20;;
68888;SDS011;55930;47.412;8.790;2022-12-20T05:46:40;3.67;;;2.22;;
68888;SDS011;55930;47.412;8.790;2022-12-20T05:50:06;5.45;;;2.70;;
68888;SDS011;55930;47.412;8.790;2022-12-20T05:53:30;4.32;;;2.40;;
68888;SDS011;55930;47.412;8.790;2022-12-20T05:56:52;3.85;;;2.25;;
68888;SDS011;55930;47.412;8.790;2022-12-20T06:00:24;3.80;;;2.42;;
68888;SDS011;55930;47.412;8.790;2022-12-20T06:03:45;3.37;;;2.00;;
68888;SDS011;55930;47.412;8.790;2022-12-20T06:07:05;3.40;;;2.10;;
68888;SDS011;55930;47.412;8.790;2022-12-20T06:10:26;2.90;;;2.00;;
68888;SDS011;55930;47.412;8.790;2022-12-20T06:13:46;4.27;;;2.23;;
68888;SDS011;55930;47.412;8.790;2022-12-20T06:17:06;3.57;;;2.10;;
68888;SDS011;55930;47.412;8.790;2022-12-20T06:20:27;2.90;;;2.00;;
68888;SDS011;55930;47.412;8.790;2022-12-20T06:23:47;2.47;;;1.73;;
68888;SDS011;55930;47.412;8.790;2022-12-20T06:27:08;2.73;;;1.60;;
68888;SDS011;55930;47.412;8.790;2022-12-20T06:30:28;2.27;;;1.70;;
68888;SDS011;55930;47.412;8.790;2022-12-20T06:33:49;2.90;;;2.17;;
68888;SDS011;55930;47.412;8.790;2022-12-20T06:37:09;2.63;;;1.67;;
68888;SDS011;55930;47.412;8.790;2022-12-20T06:40:29;2.70;;;1.57;;
68888;SDS011;55930;47.412;8.790;2022-12-20T06:43:50;3.47;;;2.03;;
68888;SDS011;55930;47.412;8.790;2022-12-20T06:47:10;4.13;;;2.03;;
68888;SDS011;55930;47.412;8.790;2022-12-20T06:50:30;2.07;;;1.43;;
68888;SDS011;55930;47.412;8.790;2022-12-20T06:53:51;4.07;;;1.80;;
68888;SDS011;55930;47.412;8.790;2022-12-20T06:57:11;3.73;;;1.80;;
68888;SDS011;55930;47.412;8.790;2022-12-20T07:00:32;2.58;;;1.70;;
68888;SDS011;55930;47.412;8.790;2022-12-20T07:03:53;2.97;;;1.63;;
68888;SDS011;55930;47.412;8.790;2022-12-20T07:07:13;2.27;;;1.70;;
68888;SDS011;55930;47.412;8.790;2022-12-20T07:10:34;3.17;;;2.00;;
68888;SDS011;55930;47.412;8.790;2022-12-20T07:13:56;2.90;;;1.67;;
68888;SDS011;55930;47.412;8.790;2022-12-20T07:17:17;2.33;;;1.73;;
68888;SDS011;55930;47.412;8.790;2022-12-20T07:20:38;2.43;;;1.60;;
68888;SDS011;55930;47.412;8.790;2022-12-20T07:23:59;2.67;;;1.87;;
68888;SDS011;55930;47.412;8.790;2022-12-20T07:27:20;3.17;;;1.95;;
68888;SDS011;55930;47.412;8.790;2022-12-20T07:30:40;2.87;;;1.80;;
68888;SDS011;55930;47.412;8.790;2022-12-20T07:34:01;3.00;;;1.67;;
68888;SDS011;55930;47.412;8.790;2022-12-20T07:37:21;3.03;;;1.80;;
68888;SDS011;55930;47.412;8.790;2022-12-20T07:40:42;7.33;;;2.00;;
68888;SDS011;55930;47.412;8.790;2022-12-20T07:44:02;3.30;;;1.97;;
68888;SDS011;55930;47.412;8.790;2022-12-20T07:47:23;3.03;;;1.93;;
68888;SDS011;55930;47.412;8.790;2022-12-20T07:50:43;2.80;;;1.67;;
68888;SDS011;55930;47.412;8.790;2022-12-20T07:54:05;5.43;;;1.60;;
68888;SDS011;55930;47.412;8.790;2022-12-20T07:57:32;2.80;;;1.50;;
68888;SDS011;55930;47.412;8.790;2022-12-20T08:00:59;2.70;;;1.50;;
68888;SDS011;55930;47.412;8.790;2022-12-20T08:04:22;2.55;;;1.55;;
68888;SDS011;55930;47.412;8.790;2022-12-20T08:07:45;3.55;;;1.70;;
68888;SDS011;55930;47.412;8.790;2022-12-20T08:11:07;2.63;;;1.88;;
68888;SDS011;55930;47.412;8.790;2022-12-20T08:14:30;3.38;;;1.88;;
68888;SDS011;55930;47.412;8.790;2022-12-20T08:17:51;2.60;;;1.50;;
68888;SDS011;55930;47.412;8.790;2022-12-20T08:21:11;2.50;;;1.70;;
68888;SDS011;55930;47.412;8.790;2022-12-20T08:24:35;2.53;;;1.67;;
68888;SDS011;55930;47.412;8.790;2022-12-20T08:27:56;3.03;;;1.80;;
68888;SDS011;55930;47.412;8.790;2022-12-20T08:31:16;3.07;;;1.67;;
68888;SDS011;55930;47.412;8.790;2022-12-20T08:34:37;3.27;;;1.77;;
68888;SDS011;55930;47.412;8.790;2022-12-20T08:37:59;2.67;;;1.65;;
68888;SDS011;55930;47.412;8.790;2022-12-20T08:41:22;5.18;;;2.38;;
68888;SDS011;55930;47.412;8.790;2022-12-20T08:44:42;5.27;;;1.80;;
68888;SDS011;55930;47.412;8.790;2022-12-20T08:48:03;3.30;;;1.90;;
68888;SDS011;55930;47.412;8.790;2022-12-20T08:51:26;2.63;;;1.70;;
68888;SDS011;55930;47.412;8.790;2022-12-20T08:54:48;4.22;;;2.10;;
68888;SDS011;55930;47.412;8.790;2022-12-20T08:58:08;3.10;;;2.10;;
68888;SDS011;55930;47.412;8.790;2022-12-20T09:01:28;3.53;;;2.20;;
68888;SDS011;55930;47.412;8.790;2022-12-20T09:04:52;4.43;;;2.45;;
68888;SDS011;55930;47.412;8.790;2022-12-20T09:08:13;4.37;;;2.63;;
68888;SDS011;55930;47.412;8.790;2022-12-20T09:11:35;6.82;;;2.83;;
68888;SDS011;55930;47.412;8.790;2022-12-20T09:14:56;3.30;;;2.60;;
68888;SDS011;55930;47.412;8.790;2022-12-20T09:18:16;4.10;;;2.40;;
68888;SDS011;55930;47.412;8.790;2022-12-20T09:21:37;4.17;;;3.03;;
68888;SDS011;55930;47.412;8.790;2022-12-20T09:24:57;4.87;;;2.50;;
68888;SDS011;55930;47.412;8.790;2022-12-20T09:28:18;3.03;;;1.87;;
68888;SDS011;55930;47.412;8.790;2022-12-20T09:31:39;3.47;;;2.00;;
68888;SDS011;55930;47.412;8.790;2022-12-20T09:35:02;3.63;;;1.95;;
68888;SDS011;55930;47.412;8.790;2022-12-20T09:41:44;2.70;;;1.70;;
68888;SDS011;55930;47.412;8.790;2022-12-20T09:45:05;3.03;;;1.70;;
68888;SDS011;55930;47.412;8.790;2022-12-20T09:48:36;3.17;;;1.75;;
68888;SDS011;55930;47.412;8.790;2022-12-20T09:56:04;3.13;;;1.48;;
68888;SDS011;55930;47.412;8.790;2022-12-20T09:59:32;3.42;;;1.88;;
68888;SDS011;55930;47.412;8.790;2022-12-20T10:02:54;2.67;;;1.40;;
68888;SDS011;55930;47.412;8.790;2022-12-20T10:13:49;1.38;;;1.25;;
68888;SDS011;55930;47.412;8.790;2022-12-20T10:17:26;2.00;;;1.42;;
68888;SDS011;55930;47.412;8.790;2022-12-20T10:21:14;3.93;;;1.57;;
68888;SDS011;55930;47.412;8.790;2022-12-20T10:24:42;3.58;;;1.60;;
68888;SDS011;55930;47.412;8.790;2022-12-20T10:28:11;2.03;;;1.40;;
68888;SDS011;55930;47.412;8.790;2022-12-20T10:31:34;1.92;;;1.15;;
68888;SDS011;55930;47.412;8.790;2022-12-20T10:38:22;2.60;;;1.80;;
68888;SDS011;55930;47.412;8.790;2022-12-20T10:48:43;3.55;;;2.53;;
68888;SDS011;55930;47.412;8.790;2022-12-20T10:55:38;3.25;;;1.80;;
68888;SDS011;55930;47.412;8.790;2022-12-20T10:59:22;3.05;;;1.80;;
68888;SDS011;55930;47.412;8.790;2022-12-20T11:02:47;4.15;;;1.90;;
68888;SDS011;55930;47.412;8.790;2022-12-20T11:09:58;2.67;;;1.45;;
68888;SDS011;55930;47.412;8.790;2022-12-20T11:13:23;6.05;;;1.33;;
68888;SDS011;55930;47.412;8.790;2022-12-20T11:16:45;1.08;;;0.90;;
68888;SDS011;55930;47.412;8.790;2022-12-20T11:24:34;3.55;;;1.15;;
68888;SDS011;55930;47.412;8.790;2022-12-20T11:27:52;2.45;;;1.20;;
68888;SDS011;55930;47.412;8.790;2022-12-20T11:35:10;3.35;;;1.05;;
68888;SDS011;55930;47.412;8.790;2022-12-20T11:38:43;4.22;;;1.23;;
68888;SDS011;55930;47.412;8.790;2022-12-20T11:53:25;1.80;;;1.10;;
68888;SDS011;55930;47.412;8.790;2022-12-20T11:56:52;2.28;;;1.35;;
68888;SDS011;55930;47.412;8.790;2022-12-20T12:00:17;3.70;;;1.20;;
68888;SDS011;55930;47.412;8.790;2022-12-20T12:07:34;3.22;;;1.27;;
68888;SDS011;55930;47.412;8.790;2022-12-20T12:11:03;3.00;;;1.00;;
68888;SDS011;55930;47.412;8.790;2022-12-20T12:18:18;1.52;;;1.02;;
68888;SDS011;55930;47.412;8.790;2022-12-20T12:21:48;1.42;;;0.93;;
68888;SDS011;55930;47.412;8.790;2022-12-20T12:25:16;4.50;;;2.63;;
68888;SDS011;55930;47.412;8.790;2022-12-20T12:28:38;8.30;;;3.58;;
68888;SDS011;55930;47.412;8.790;2022-12-20T12:39:12;9.25;;;5.22;;
68888;SDS011;55930;47.412;8.790;2022-12-20T12:46:07;6.80;;;4.60;;
68888;SDS011;55930;47.412;8.790;2022-12-20T12:49:31;5.72;;;3.97;;
68888;SDS011;55930;47.412;8.790;2022-12-20T12:52:53;5.10;;;3.20;;
68888;SDS011;55930;47.412;8.790;2022-12-20T12:59:45;8.15;;;3.40;;
68888;SDS011;55930;47.412;8.790;2022-12-20T13:03:13;3.50;;;2.17;;
68888;SDS011;55930;47.412;8.790;2022-12-20T13:09:56;3.70;;;2.40;;
68888;SDS011;55930;47.412;8.790;2022-12-20T13:13:21;3.67;;;2.15;;
68888;SDS011;55930;47.412;8.790;2022-12-20T13:16:45;3.03;;;1.70;;
68888;SDS011;55930;47.412;8.790;2022-12-20T13:20:14;3.00;;;1.85;;
68888;SDS011;55930;47.412;8.790;2022-12-20T13:23:39;4.38;;;3.22;;
68888;SDS011;55930;47.412;8.790;2022-12-20T13:27:00;3.50;;;3.20;;
68888;SDS011;55930;47.412;8.790;2022-12-20T13:30:25;3.58;;;3.28;;
68888;SDS011;55930;47.412;8.790;2022-12-20T13:33:47;3.55;;;3.25;;
68888;SDS011;55930;47.412;8.790;2022-12-20T13:37:24;2.72;;;1.80;;
68888;SDS011;55930;47.412;8.790;2022-12-20T13:40:49;3.08;;;1.35;;
68888;SDS011;55930;47.412;8.790;2022-12-20T13:50:59;2.35;;;1.40;;
68888;SDS011;55930;47.412;8.790;2022-12-20T13:54:21;3.83;;;1.50;;
68888;SDS011;55930;47.412;8.790;2022-12-20T13:57:42;2.17;;;1.40;;
68888;SDS011;55930;47.412;8.790;2022-12-20T14:01:13;3.40;;;1.80;;
68888;SDS011;55930;47.412;8.790;2022-12-20T14:04:43;5.30;;;1.80;;
68888;SDS011;55930;47.412;8.790;2022-12-20T14:08:15;4.80;;;1.95;;
68888;SDS011;55930;47.412;8.790;2022-12-20T14:11:45;3.05;;;1.80;;
68888;SDS011;55930;47.412;8.790;2022-12-20T14:15:19;3.33;;;1.75;;
68888;SDS011;55930;47.412;8.790;2022-12-20T14:18:48;2.58;;;1.90;;
68888;SDS011;55930;47.412;8.790;2022-12-20T14:22:10;2.75;;;1.85;;
68888;SDS011;55930;47.412;8.790;2022-12-20T14:25:33;5.05;;;2.15;;
68888;SDS011;55930;47.412;8.790;2022-12-20T14:28:59;3.40;;;2.20;;
68888;SDS011;55930;47.412;8.790;2022-12-20T14:32:20;4.35;;;1.95;;
68888;SDS011;55930;47.412;8.790;2022-12-20T14:35:45;3.63;;;1.60;;
68888;SDS011;55930;47.412;8.790;2022-12-20T14:42:48;4.30;;;2.28;;
68888;SDS011;55930;47.412;8.790;2022-12-20T14:46:14;2.28;;;1.40;;
68888;SDS011;55930;47.412;8.790;2022-12-20T14:49:38;2.40;;;1.48;;
68888;SDS011;55930;47.412;8.790;2022-12-20T14:56:20;2.07;;;1.43;;
68888;SDS011;55930;47.412;8.790;2022-12-20T14:59:41;4.10;;;1.70;;
68888;SDS011;55930;47.412;8.790;2022-12-20T15:03:17;3.90;;;1.67;;
68888;SDS011;55930;47.412;8.790;2022-12-20T15:06:42;3.90;;;1.60;;
68888;SDS011;55930;47.412;8.790;2022-12-20T15:10:03;3.45;;;1.60;;
68888;SDS011;55930;47.412;8.790;2022-12-20T15:17:10;2.83;;;1.95;;
68888;SDS011;55930;47.412;8.790;2022-12-20T15:20:32;3.63;;;2.20;;
68888;SDS011;55930;47.412;8.790;2022-12-20T15:23:55;3.35;;;1.90;;
68888;SDS011;55930;47.412;8.790;2022-12-20T15:27:19;4.70;;;1.75;;
68888;SDS011;55930;47.412;8.790;2022-12-20T15:30:40;4.32;;;1.70;;
68888;SDS011;55930;47.412;8.790;2022-12-20T15:37:46;3.35;;;1.23;;
68888;SDS011;55930;47.412;8.790;2022-12-20T15:41:07;3.73;;;1.10;;
68888;SDS011;55930;47.412;8.790;2022-12-20T15:44:33;2.20;;;1.40;;
68888;SDS011;55930;47.412;8.790;2022-12-20T15:47:56;2.35;;;1.30;;
68888;SDS011;55930;47.412;8.790;2022-12-20T15:51:34;3.42;;;1.15;;
68888;SDS011;55930;47.412;8.790;2022-12-20T15:54:56;1.55;;;1.20;;
68888;SDS011;55930;47.412;8.790;2022-12-20T15:58:17;1.73;;;1.10;;
68888;SDS011;55930;47.412;8.790;2022-12-20T16:01:37;2.70;;;1.20;;
68888;SDS011;55930;47.412;8.790;2022-12-20T16:04:58;2.72;;;1.20;;
68888;SDS011;55930;47.412;8.790;2022-12-20T16:08:22;2.17;;;1.15;;
68888;SDS011;55930;47.412;8.790;2022-12-20T16:11:43;3.00;;;1.10;;
68888;SDS011;55930;47.412;8.790;2022-12-20T16:15:04;2.27;;;1.43;;
68888;SDS011;55930;47.412;8.790;2022-12-20T16:18:24;2.05;;;1.20;;
68888;SDS011;55930;47.412;8.790;2022-12-20T16:21:51;2.83;;;1.33;;
68888;SDS011;55930;47.412;8.790;2022-12-20T16:28:47;2.20;;;0.93;;
68888;SDS011;55930;47.412;8.790;2022-12-20T16:32:18;1.88;;;1.10;;
68888;SDS011;55930;47.412;8.790;2022-12-20T16:35:40;2.67;;;1.10;;
68888;SDS011;55930;47.412;8.790;2022-12-20T16:39:01;1.92;;;1.27;;
68888;SDS011;55930;47.412;8.790;2022-12-20T16:42:24;2.78;;;1.30;;
68888;SDS011;55930;47.412;8.790;2022-12-20T16:45:44;1.77;;;1.20;;
68888;SDS011;55930;47.412;8.790;2022-12-20T16:49:05;2.77;;;1.20;;
68888;SDS011;55930;47.412;8.790;2022-12-20T16:52:25;1.30;;;1.00;;
68888;SDS011;55930;47.412;8.790;2022-12-20T16:55:45;2.17;;;1.43;;
68888;SDS011;55930;47.412;8.790;2022-12-20T16:59:06;3.57;;;1.43;;
68888;SDS011;55930;47.412;8.790;2022-12-20T17:02:28;2.20;;;1.15;;
68888;SDS011;55930;47.412;8.790;2022-12-20T17:05:50;1.67;;;1.05;;
68888;SDS011;55930;47.412;8.790;2022-12-20T17:09:11;1.67;;;1.17;;
68888;SDS011;55930;47.412;8.790;2022-12-20T17:12:32;2.03;;;1.30;;
68888;SDS011;55930;47.412;8.790;2022-12-20T17:15:52;2.37;;;1.30;;
68888;SDS011;55930;47.412;8.790;2022-12-20T17:19:12;1.70;;;1.37;;
68888;SDS011;55930;47.412;8.790;2022-12-20T17:22:33;1.67;;;0.90;;
68888;SDS011;55930;47.412;8.790;2022-12-20T17:25:53;6.07;;;1.40;;
68888;SDS011;55930;47.412;8.790;2022-12-20T17:29:14;1.30;;;1.00;;
68888;SDS011;55930;47.412;8.790;2022-12-20T17:32:36;2.25;;;1.35;;
68888;SDS011;55930;47.412;8.790;2022-12-20T17:35:57;1.23;;;0.80;;
68888;SDS011;55930;47.412;8.790;2022-12-20T17:39:17;2.00;;;1.20;;
68888;SDS011;55930;47.412;8.790;2022-12-20T17:42:37;3.60;;;1.50;;
68888;SDS011;55930;47.412;8.790;2022-12-20T17:45:58;1.50;;;0.93;;
68888;SDS011;55930;47.412;8.790;2022-12-20T17:49:18;1.40;;;1.10;;
68888;SDS011;55930;47.412;8.790;2022-12-20T17:52:40;3.45;;;1.38;;
68888;SDS011;55930;47.412;8.790;2022-12-20T17:56:03;2.63;;;1.15;;
68888;SDS011;55930;47.412;8.790;2022-12-20T17:59:24;2.10;;;1.27;;
68888;SDS011;55930;47.412;8.790;2022-12-20T18:02:46;2.78;;;1.70;;
68888;SDS011;55930;47.412;8.790;2022-12-20T18:06:06;2.43;;;1.03;;
68888;SDS011;55930;47.412;8.790;2022-12-20T18:09:30;3.13;;;1.30;;
68888;SDS011;55930;47.412;8.790;2022-12-20T18:12:51;2.17;;;1.23;;
68888;SDS011;55930;47.412;8.790;2022-12-20T18:16:12;2.03;;;1.20;;
68888;SDS011;55930;47.412;8.790;2022-12-20T18:19:34;2.05;;;1.10;;
68888;SDS011;55930;47.412;8.790;2022-12-20T18:22:54;2.23;;;1.03;;
68888;SDS011;55930;47.412;8.790;2022-12-20T18:26:17;2.93;;;1.50;;
68888;SDS011;55930;47.412;8.790;2022-12-20T18:29:39;1.70;;;1.30;;
68888;SDS011;55930;47.412;8.790;2022-12-20T18:33:00;2.30;;;1.07;;
68888;SDS011;55930;47.412;8.790;2022-12-20T18:36:21;1.73;;;1.00;;
68888;SDS011;55930;47.412;8.790;2022-12-20T18:39:43;1.67;;;1.00;;
68888;SDS011;55930;47.412;8.790;2022-12-20T18:43:04;3.43;;;0.90;;
68888;SDS011;55930;47.412;8.790;2022-12-20T18:46:24;3.87;;;2.60;;
68888;SDS011;55930;47.412;8.790;2022-12-20T18:49:45;2.13;;;1.63;;
68888;SDS011;55930;47.412;8.790;2022-12-20T18:53:06;2.23;;;1.07;;
68888;SDS011;55930;47.412;8.790;2022-12-20T18:56:27;1.53;;;1.00;;
68888;SDS011;55930;47.412;8.790;2022-12-20T18:59:50;1.65;;;0.90;;
68888;SDS011;55930;47.412;8.790;2022-12-20T19:03:10;2.50;;;1.13;;
68888;SDS011;55930;47.412;8.790;2022-12-20T19:06:34;3.10;;;1.35;;
68888;SDS011;55930;47.412;8.790;2022-12-20T19:09:55;2.22;;;1.08;;
68888;SDS011;55930;47.412;8.790;2022-12-20T19:13:18;1.85;;;0.95;;
68888;SDS011;55930;47.412;8.790;2022-12-20T19:16:38;2.93;;;1.47;;
68888;SDS011;55930;47.412;8.790;2022-12-20T19:19:59;3.30;;;0.90;;
68888;SDS011;55930;47.412;8.790;2022-12-20T19:23:19;2.40;;;1.20;;
68888;SDS011;55930;47.412;8.790;2022-12-20T19:26:41;1.85;;;0.85;;
68888;SDS011;55930;47.412;8.790;2022-12-20T19:30:10;2.42;;;1.08;;
68888;SDS011;55930;47.412;8.790;2022-12-20T19:33:31;2.00;;;1.00;;
68888;SDS011;55930;47.412;8.790;2022-12-20T19:36:57;1.30;;;0.95;;
68888;SDS011;55930;47.412;8.790;2022-12-20T19:40:18;1.45;;;1.00;;
68888;SDS011;55930;47.412;8.790;2022-12-20T19:43:45;3.35;;;1.45;;
68888;SDS011;55930;47.412;8.790;2022-12-20T19:47:07;2.90;;;1.40;;
68888;SDS011;55930;47.412;8.790;2022-12-20T19:50:28;2.87;;;1.80;;
68888;SDS011;55930;47.412;8.790;2022-12-20T19:53:51;4.63;;;1.57;;
68888;SDS011;55930;47.412;8.790;2022-12-20T19:57:12;2.28;;;1.40;;
68888;SDS011;55930;47.412;8.790;2022-12-20T20:00:33;3.27;;;1.37;;
68888;SDS011;55930;47.412;8.790;2022-12-20T20:03:54;2.17;;;1.30;;
68888;SDS011;55930;47.412;8.790;2022-12-20T20:07:15;2.28;;;1.45;;
68888;SDS011;55930;47.412;8.790;2022-12-20T20:10:37;2.57;;;1.40;;
68888;SDS011;55930;47.412;8.790;2022-12-20T20:14:00;3.53;;;1.60;;
68888;SDS011;55930;47.412;8.790;2022-12-20T20:17:22;2.30;;;1.40;;
68888;SDS011;55930;47.412;8.790;2022-12-20T20:20:42;3.40;;;1.47;;
68888;SDS011;55930;47.412;8.790;2022-12-20T20:24:03;3.23;;;1.70;;
68888;SDS011;55930;47.412;8.790;2022-12-20T20:27:23;2.53;;;1.48;;
68888;SDS011;55930;47.412;8.790;2022-12-20T20:30:44;2.53;;;1.70;;
68888;SDS011;55930;47.412;8.790;2022-12-20T20:34:07;1.60;;;1.27;;
68888;SDS011;55930;47.412;8.790;2022-12-20T20:37:28;2.65;;;1.50;;
68888;SDS011;55930;47.412;8.790;2022-12-20T20:40:49;3.57;;;1.33;;
68888;SDS011;55930;47.412;8.790;2022-12-20T20:44:10;2.67;;;1.73;;
68888;SDS011;55930;47.412;8.790;2022-12-20T20:47:31;4.25;;;1.58;;
68888;SDS011;55930;47.412;8.790;2022-12-20T20:50:54;2.53;;;1.33;;
68888;SDS011;55930;47.412;8.790;2022-12-20T20:54:17;2.47;;;1.20;;
68888;SDS011;55930;47.412;8.790;2022-12-20T20:57:37;3.90;;;1.30;;
68888;SDS011;55930;47.412;8.790;2022-12-20T21:00:59;2.08;;;1.48;;
68888;SDS011;55930;47.412;8.790;2022-12-20T21:04:20;2.17;;;1.30;;
68888;SDS011;55930;47.412;8.790;2022-12-20T21:07:41;1.93;;;1.30;;
68888;SDS011;55930;47.412;8.790;2022-12-20T21:11:05;4.57;;;1.60;;
68888;SDS011;55930;47.412;8.790;2022-12-20T21:14:26;3.25;;;1.60;;
68888;SDS011;55930;47.412;8.790;2022-12-20T21:17:46;1.50;;;1.20;;
68888;SDS011;55930;47.412;8.790;2022-12-20T21:21:07;5.40;;;1.60;;
68888;SDS011;55930;47.412;8.790;2022-12-20T21:24:29;2.78;;;1.60;;
68888;SDS011;55930;47.412;8.790;2022-12-20T21:27:50;4.47;;;1.63;;
68888;SDS011;55930;47.412;8.790;2022-12-20T21:31:11;3.13;;;1.87;;
68888;SDS011;55930;47.412;8.790;2022-12-20T21:34:33;3.55;;;2.03;;
68888;SDS011;55930;47.412;8.790;2022-12-20T21:37:53;2.83;;;1.40;;
68888;SDS011;55930;47.412;8.790;2022-12-20T21:41:14;2.57;;;1.63;;
68888;SDS011;55930;47.412;8.790;2022-12-20T21:44:34;1.73;;;1.20;;
68888;SDS011;55930;47.412;8.790;2022-12-20T21:47:55;3.37;;;1.40;;
68888;SDS011;55930;47.412;8.790;2022-12-20T21:51:16;2.10;;;1.10;;
68888;SDS011;55930;47.412;8.790;2022-12-20T21:54:43;1.52;;;0.80;;
68888;SDS011;55930;47.412;8.790;2022-12-20T21:58:04;1.75;;;1.10;;
68888;SDS011;55930;47.412;8.790;2022-12-20T22:01:25;3.00;;;1.10;;
68888;SDS011;55930;47.412;8.790;2022-12-20T22:08:08;2.37;;;1.00;;
68888;SDS011;55930;47.412;8.790;2022-12-20T22:11:30;4.75;;;1.50;;
68888;SDS011;55930;47.412;8.790;2022-12-20T22:14:53;4.65;;;1.40;;
68888;SDS011;55930;47.412;8.790;2022-12-20T22:18:13;3.30;;;1.33;;
68888;SDS011;55930;47.412;8.790;2022-12-20T22:21:34;2.83;;;1.03;;
68888;SDS011;55930;47.412;8.790;2022-12-20T22:24:57;2.00;;;1.00;;